Time;durP1;ratioP1;P1;durP2;ratioP2;P2;SDS_P1;SDS_P2;PMS_P1;PMS_P2;Temp;Humidity;BMP_temperature;BMP_pressure;BME280_temperature;BME280_humidity;BME280_pressure;Samples;Min_cycle;Max_cycle;Signal;HPM_P1;HPM_P2
2024/04/09 00:01:20;;;;;;;5.40;4.00;;;;;;;-147.86;100.00;14155.02;105827;1253;61339;-51
2024/04/09 00:03:47;;;;;;;10.80;4.60;;;;;;;-147.86;100.00;14533.61;105843;1257;74682;-45
2024/04/09 00:06:14;;;;;;;8.60;4.20;;;;;;;-147.86;100.00;14845.37;105792;1254;65461;-49
2024/04/09 00:08:45;;;;;;;8.20;4.70;;;;;;;-147.86;100.00;15074.73;105779;1254;72603;-48
2024/04/09 00:11:22;;;;;;;11.60;4.40;;;;;;;-147.86;100.00;15144.33;105842;1259;61221;-46
2024/04/09 00:13:54;;;;;;;7.90;5.20;;;;;;;-147.86;100.00;15023.82;105798;1254;61327;-48
2024/04/09 00:16:27;;;;;;;7.40;4.70;;;;;;;-147.86;100.00;15130.72;105822;1254;73437;-48
2024/04/09 00:18:58;;;;;;;6.50;4.90;;;;;;;-147.86;100.00;15297.52;105828;1254;65791;-51
2024/04/09 00:21:25;;;;;;;11.40;5.30;;;;;;;-147.86;100.00;15596.50;105859;1258;72606;-47
2024/04/09 00:23:56;;;;;;;10.10;5.40;;;;;;;-147.86;100.00;15839.52;105837;1257;61214;-48
2024/04/09 00:26:24;;;;;;;7.30;5.30;;;;;;;-147.86;100.00;16131.57;105879;1254;61225;-52
2024/04/09 00:28:51;;;;;;;6.70;4.40;;;;;;;-147.86;100.00;16693.53;105890;1257;74632;-46
2024/04/09 00:31:20;;;;;;;7.00;3.90;;;;;;;-147.86;100.00;17103.48;105813;1254;65480;-48
2024/04/09 00:33:47;;;;;;;10.60;5.00;;;;;;;-147.86;100.00;17378.10;105813;1254;72518;-50
2024/04/09 00:36:14;;;;;;;8.60;4.70;;;;;;;-147.86;100.00;17591.67;105872;1254;61151;-47
2024/04/09 00:38:41;;;;;;;8.90;5.40;;;;;;;-147.86;100.00;17696.70;105806;1254;61353;-46
2024/04/09 00:41:10;;;;;;;15.70;5.00;;;;;;;-147.86;100.00;17811.47;105823;1257;74658;-47
2024/04/09 00:43:37;;;;;;;11.90;5.10;;;;;;;-147.86;100.00;17849.21;105856;1254;65493;-47
2024/04/09 00:46:05;;;;;;;10.60;5.60;;;;;;;-147.86;100.00;17972.93;105868;1257;72605;-47
2024/04/09 00:48:33;;;;;;;6.70;4.80;;;;;;;-147.86;100.00;18047.24;105808;1257;61228;-49
2024/04/09 00:51:00;;;;;;;7.70;4.70;;;;;;;-147.86;100.00;18089.26;105736;1254;61359;-46
2024/04/09 00:53:27;;;;;;;8.10;5.00;;;;;;;-147.86;100.00;18043.73;105718;1259;74566;-50
2024/04/09 00:55:54;;;;;;;9.20;5.30;;;;;;;-147.86;100.00;17958.92;105821;1254;65394;-45
2024/04/09 00:58:22;;;;;;;11.80;5.40;;;;;;;-147.86;100.00;17924.29;105851;1254;71072;-44
2024/04/09 01:00:49;;;;;;;10.80;6.50;;;;;;;-147.86;100.00;17888.11;105677;1253;61949;-46
2024/04/09 01:03:17;;;;;;;18.30;6.80;;;;;;;-147.86;100.00;17886.94;105705;1254;61250;-48
2024/04/09 01:05:45;;;;;;;11.90;6.70;;;;;;;-147.86;100.00;18104.43;105820;1253;74596;-45
2024/04/09 01:08:12;;;;;;;14.00;7.00;;;;;;;-147.86;100.00;18572.91;105799;1254;65486;-49
2024/04/09 01:10:39;;;;;;;15.90;6.50;;;;;;;-147.86;100.00;18976.44;105869;1254;72672;-48
2024/04/09 01:13:06;;;;;;;18.10;7.00;;;;;;;-147.86;100.00;19225.12;105822;1254;61814;-49
2024/04/09 01:15:33;;;;;;;16.00;7.30;;;;;;;-147.86;100.00;19337.99;105861;1254;61257;-46
2024/04/09 01:18:00;;;;;;;11.00;7.30;;;;;;;-147.86;100.00;19378.07;105860;1254;74601;-47
2024/04/09 01:20:27;;;;;;;12.20;6.80;;;;;;;-147.86;100.00;19504.57;105793;1254;64703;-44
2024/04/09 01:22:54;;;;;;;14.90;6.10;;;;;;;-147.86;100.00;19590.19;105803;1259;72531;-51
2024/04/09 01:25:21;;;;;;;13.00;6.50;;;;;;;-147.86;100.00;19525.58;105798;1253;61964;-46
2024/04/09 01:27:48;;;;;;;13.90;7.50;;;;;;;-147.86;100.00;19395.97;105571;1254;61317;-49
2024/04/09 01:30:15;;;;;;;14.70;7.10;;;;;;;-147.86;100.00;19206.05;105620;1254;74643;-51
2024/04/09 01:32:44;;;;;;;17.70;6.40;;;;;;;-147.86;100.00;18918.45;105738;1254;64492;-50
2024/04/09 01:35:14;;;;;;;18.90;6.80;;;;;;;-147.86;100.00;18630.49;105912;1257;72570;-49
2024/04/09 01:37:41;;;;;;;19.30;6.80;;;;;;;-147.86;100.00;18366.67;105842;1254;61236;-45
2024/04/09 01:40:09;;;;;;;17.60;7.30;;;;;;;-147.86;100.00;18254.61;105811;1254;61241;-52
2024/04/09 01:42:36;;;;;;;11.70;6.50;;;;;;;-147.86;100.00;18175.63;105900;1254;73434;-48
2024/04/09 01:45:04;;;;;;;15.50;7.10;;;;;;;-147.86;100.00;18056.96;105670;1254;65555;-47
2024/04/09 01:47:31;;;;;;;16.80;6.90;;;;;;;-147.86;100.00;17820.02;105337;1259;72737;-49
2024/04/09 01:49:58;;;;;;;16.90;6.30;;;;;;;-147.86;100.00;17590.88;105788;1257;61812;-50
2024/04/09 01:52:25;;;;;;;10.30;7.00;;;;;;;-147.86;100.00;17348.53;105870;1259;61295;-50
2024/04/09 01:54:53;;;;;;;15.00;7.30;;;;;;;-147.86;100.00;17090.24;105847;1256;74495;-45
2024/04/09 01:57:19;;;;;;;12.60;6.10;;;;;;;-147.86;100.00;16979.78;105793;1254;65439;-47
2024/04/09 01:59:47;;;;;;;10.60;5.60;;;;;;;-147.86;100.00;16817.19;105809;1254;72654;-45
2024/04/09 02:02:16;;;;;;;10.40;5.90;;;;;;;-147.86;100.00;16525.88;105850;1254;61650;-47
2024/04/09 02:04:44;;;;;;;18.10;6.80;;;;;;;-147.86;100.00;16318.22;105878;1254;61295;-48
2024/04/09 02:07:11;;;;;;;9.20;6.40;;;;;;;-147.86;100.00;16463.67;105822;1253;74139;-51
2024/04/09 02:09:38;;;;;;;11.00;6.10;;;;;;;-147.86;100.00;16769.75;105840;1257;64975;-48
2024/04/09 02:12:07;;;;;;;16.70;6.40;;;;;;;-147.86;100.00;17017.51;105860;1254;72650;-47
2024/04/09 02:14:35;;;;;;;51.00;7.30;;;;;;;-147.86;100.00;17142.76;105827;1259;61333;-48
2024/04/09 02:17:02;;;;;;;8.80;6.30;;;;;;;-147.86;100.00;17140.42;105866;1254;61285;-48
2024/04/09 02:19:29;;;;;;;9.90;6.40;;;;;;;-147.86;100.00;17079.35;105807;1257;74514;-46
2024/04/09 02:21:56;;;;;;;16.40;5.90;;;;;;;-147.86;100.00;17007.00;105818;1254;64480;-46
2024/04/09 02:24:23;;;;;;;18.00;6.30;;;;;;;-147.86;100.00;16901.98;105859;1259;72417;-50
2024/04/09 02:26:50;;;;;;;21.90;5.70;;;;;;;-147.86;100.00;16801.25;105828;1254;61939;-51
2024/04/09 02:29:17;;;;;;;17.20;6.20;;;;;;;-147.86;100.00;16789.97;105822;1254;61241;-48
2024/04/09 02:31:44;;;;;;;15.20;6.60;;;;;;;-147.86;100.00;16662.40;105837;1257;74610;-47
2024/04/09 02:34:11;;;;;;;13.50;6.30;;;;;;;-147.86;100.00;16583.84;105867;1254;65497;-45
2024/04/09 02:36:38;;;;;;;17.50;6.10;;;;;;;-147.86;100.00;16598.62;105845;1259;72596;-45
2024/04/09 02:39:08;;;;;;;10.70;6.20;;;;;;;-147.86;100.00;16718.41;105806;1254;61359;-47
2024/04/09 02:41:39;;;;;;;8.70;5.50;;;;;;;-147.86;100.00;16810.20;105842;1254;61206;-43
2024/04/09 02:44:07;;;;;;;11.60;5.70;;;;;;;-147.86;100.00;16853.37;105838;1256;74637;-47
2024/04/09 02:46:34;;;;;;;11.10;6.50;;;;;;;-147.86;100.00;16913.27;105860;1254;65319;-49
2024/04/09 02:49:01;;;;;;;9.60;6.00;;;;;;;-147.86;100.00;16900.43;105810;1257;71126;-47
2024/04/09 02:51:28;;;;;;;15.60;6.00;;;;;;;-147.86;100.00;16949.05;105862;1259;61235;-45
2024/04/09 02:53:55;;;;;;;16.00;6.20;;;;;;;-147.86;100.00;17061.07;105835;1254;61218;-49
2024/04/09 02:56:22;;;;;;;15.70;6.00;;;;;;;-147.86;100.00;17259.07;105846;1257;74544;-46
2024/04/09 02:58:49;;;;;;;9.20;6.00;;;;;;;-147.86;100.00;17443.45;105852;1254;65541;-46
2024/04/09 03:01:17;;;;;;;13.10;5.70;;;;;;;-147.86;100.00;17695.54;105858;1254;72595;-48
2024/04/09 03:03:44;;;;;;;10.90;6.00;;;;;;;-147.86;100.00;17827.42;105858;1257;61100;-47
2024/04/09 03:06:12;;;;;;;12.90;5.80;;;;;;;-147.86;100.00;18203.27;105845;1254;60195;-48
2024/04/09 03:08:40;;;;;;;16.90;6.50;;;;;;;-147.86;100.00;18978.40;105846;1257;74560;-48
2024/04/09 03:11:17;;;;;;;16.60;5.90;;;;;;;-147.86;100.00;19538.82;105825;1254;65575;-48
2024/04/09 03:13:46;;;;;;;11.60;5.90;;;;;;;-147.86;100.00;19846.33;105822;1254;72468;-47
2024/04/09 03:16:14;;;;;;;13.10;5.90;;;;;;;-147.86;100.00;20313.44;105842;1259;61259;-44
2024/04/09 03:18:42;;;;;;;17.00;6.10;;;;;;;-147.86;100.00;20612.04;105883;1254;61350;-46
2024/04/09 03:21:09;;;;;;;21.60;6.20;;;;;;;-147.86;100.00;21007.23;105863;1254;73222;-47
2024/04/09 03:23:39;;;;;;;10.10;6.00;;;;;;;-147.86;100.00;21560.55;105874;1254;64715;-47
2024/04/09 03:26:09;;;;;;;20.50;5.40;;;;;;;-147.86;100.00;22039.18;105827;1257;72658;-46
2024/04/09 03:28:36;;;;;;;14.60;5.90;;;;;;;-147.86;100.00;22516.31;105864;1259;61128;-48
2024/04/09 03:31:03;;;;;;;11.50;6.00;;;;;;;-147.86;100.00;22877.40;105853;1254;61295;-46
2024/04/09 03:33:30;;;;;;;11.90;6.00;;;;;;;-147.86;100.00;23108.41;105843;1259;75820;-47
2024/04/09 03:35:59;;;;;;;13.20;5.80;;;;;;;-147.86;100.00;23471.12;105827;1258;63571;-47
2024/04/09 03:38:27;;;;;;;9.80;5.60;;;;;;;-147.86;100.00;23902.83;105851;1254;71138;-48
2024/04/09 03:40:57;;;;;;;19.70;6.00;;;;;;;-147.86;100.00;24374.34;105867;1257;61212;-49
2024/04/09 03:43:24;;;;;;;10.50;5.60;;;;;;;-147.86;100.00;24755.88;105868;1254;61334;-46
2024/04/09 03:46:08;;;;;;;6.50;5.00;;;;;;;-147.86;100.00;25147.97;105850;1258;74418;-47
2024/04/09 03:48:35;;;;;;;7.50;5.40;;;;;;;-147.86;100.00;25321.07;105871;1257;64227;-47
2024/04/09 03:51:05;;;;;;;9.70;6.40;;;;;;;-147.86;100.00;26018.45;105835;1254;71446;-46
2024/04/09 03:53:33;;;;;;;9.20;5.70;;;;;;;-147.86;100.00;26670.36;105892;1257;61219;-47
2024/04/09 03:56:03;;;;;;;11.30;5.30;;;;;;;-147.86;100.00;27380.88;105889;1254;61352;-43
2024/04/09 03:58:32;;;;;;;9.70;5.40;;;;;;;-147.86;100.00;28008.05;105811;1257;74639;-47
2024/04/09 04:01:00;;;;;;;11.40;5.00;;;;;;;-147.86;100.00;28680.96;105844;1256;63868;-45
2024/04/09 04:03:31;;;;;;;12.40;5.70;;;;;;;-147.86;100.00;29295.86;105877;1254;70470;-50
2024/04/09 04:06:00;;;;;;;10.30;5.60;;;;;;;-147.86;100.00;30002.95;105889;1254;61262;-46
2024/04/09 04:08:31;;;;;;;12.30;5.60;;;;;;;-147.86;100.00;30667.62;105852;1253;61260;-43
2024/04/09 04:11:00;;;;;;;13.80;5.20;;;;;;;-147.86;100.00;31309.77;105862;1257;73168;-50
2024/04/09 04:13:29;;;;;;;11.80;5.60;;;;;;;-147.86;100.00;32020.73;105887;1260;63950;-47
2024/04/09 04:16:12;;;;;;;15.00;5.40;;;;;;;-147.86;100.00;32618.57;105898;1257;72288;-47
2024/04/09 04:18:46;;;;;;;10.60;5.40;;;;;;;-147.86;100.00;32947.82;105811;1254;61295;-49
2024/04/09 04:21:14;;;;;;;9.60;5.30;;;;;;;-147.86;100.00;33466.49;105881;1257;61306;-45
2024/04/09 04:23:42;;;;;;;8.90;4.90;;;;;;;-147.86;100.00;33865.30;105836;1255;74562;-48
2024/04/09 04:26:12;;;;;;;12.80;5.60;;;;;;;-147.86;100.00;33976.24;105867;1258;64284;-43
2024/04/09 04:28:39;;;;;;;11.50;5.80;;;;;;;-147.86;100.00;33934.05;105879;1254;72670;-48
2024/04/09 04:31:08;;;;;;;10.80;5.10;;;;;;;-147.86;100.00;33852.80;105874;1257;61179;-45
2024/04/09 04:33:35;;;;;;;14.50;5.90;;;;;;;-147.86;100.00;33611.38;105891;1254;61254;-51
2024/04/09 04:36:07;;;;;;;14.10;5.30;;;;;;;-147.86;100.00;33143.05;105849;1258;74499;-47
2024/04/09 04:38:34;;;;;;;7.80;5.30;;;;;;;-147.86;100.00;32312.39;105870;1254;65393;-46
2024/04/09 04:41:02;;;;;;;14.00;5.40;;;;;;;-147.86;100.00;31169.20;105880;1257;72650;-48
2024/04/09 04:43:29;;;;;;;10.00;5.10;;;;;;;-147.86;100.00;29429.68;105846;1257;61171;-46
2024/04/09 04:45:56;;;;;;;12.20;5.40;;;;;;;-147.86;100.00;27031.07;105887;1253;61426;-49
2024/04/09 04:48:23;;;;;;;11.50;5.30;;;;;;;-147.86;100.00;23953.53;105927;1256;74473;-49
2024/04/09 04:50:52;;;;;;;11.20;5.20;;;;;;;-147.86;100.00;20282.75;105816;1254;65563;-44
2024/04/09 04:53:20;;;;;;;9.40;4.70;;;;;;;-147.86;100.00;16119.59;105840;1254;72625;-46
2024/04/09 04:55:49;;;;;;;5.20;4.20;;;;;;;-147.86;100.00;11695.94;105714;1256;62393;-48
2024/04/09 04:58:16;;;;;;;10.90;4.70;;;;;;;-147.86;100.00;6892.53;105630;1254;61173;-46
2024/04/09 05:00:43;;;;;;;7.00;4.50;;;;;;;-147.86;100.00;597.17;105797;1260;74602;-54
2024/04/09 05:03:10;;;;;;;7.60;3.90;;;;;;;-147.86;100.00;-7469.43;105883;1256;65514;-52
2024/04/09 05:05:38;;;;;;;5.70;4.20;;;;;;;-147.86;100.00;-14694.03;105775;1260;72587;-48
2024/04/09 05:08:05;;;;;;;5.50;4.40;;;;;;;-147.86;100.00;-17536.12;105873;1254;61177;-48
2024/04/09 05:10:32;;;;;;;9.30;4.40;;;;;;;-147.86;100.00;-17609.17;105522;1254;395097;-49
2024/04/09 05:15:54;;;;;;;8.20;4.50;;;;;;;-147.86;100.00;-16227.98;102490;1295;603075;-47
2024/04/09 05:18:21;;;;;;;8.40;4.40;;;;;;;-147.86;100.00;-17609.17;104904;1268;59742;-47
2024/04/09 05:20:49;;;;;;;7.30;5.00;;;;;;;-147.86;100.00;-17609.17;104896;1266;60327;-49
2024/04/09 05:23:16;;;;;;;9.20;4.10;;;;;;;-147.86;100.00;-17609.17;104818;1268;73096;-48
2024/04/09 05:25:43;;;;;;;8.90;3.80;;;;;;;-147.86;100.00;-17609.17;104948;1272;64697;-50
2024/04/09 05:28:09;;;;;;;11.60;4.40;;;;;;;-147.86;100.00;-17609.17;104492;1264;545228;-48
2024/04/09 05:30:36;;;;;;;13.10;5.10;;;;;;;-147.86;100.00;-17609.17;105186;1267;60382;-49
2024/04/09 05:33:04;;;;;;;16.70;5.70;;;;;;;-147.86;100.00;-17609.17;105228;1263;60170;-47
2024/04/09 05:35:31;;;;;;;15.20;6.40;;;;;;;-147.86;100.00;-17609.17;105637;1262;73747;-48
2024/04/09 05:37:58;;;;;;;11.30;4.70;;;;;;;-147.86;100.00;-17609.17;105633;1263;66101;-47
2024/04/09 05:40:25;;;;;;;21.10;4.60;;;;;;;-147.86;100.00;-17609.17;105649;1262;73019;-47
2024/04/09 05:42:52;;;;;;;14.60;4.40;;;;;;;-147.86;100.00;-17609.17;105496;1262;60530;-47
2024/04/09 05:45:19;;;;;;;12.30;4.50;;;;;;;-147.86;100.00;-17609.17;105612;1257;61056;-48
2024/04/09 05:47:47;;;;;;;12.30;3.80;;;;;;;-147.86;100.00;-17609.17;105610;1262;74320;-48
2024/04/09 05:50:15;;;;;;;9.20;3.80;;;;;;;-147.86;100.00;-17609.17;105616;1261;63838;-50
2024/04/09 05:52:43;;;;;;;12.90;4.40;;;;;;;-147.86;100.00;-17609.17;105618;1257;74018;-49
2024/04/09 05:55:11;;;;;;;9.40;4.00;;;;;;;-147.86;100.00;-17609.17;105628;1262;60931;-47
2024/04/09 05:57:39;;;;;;;10.00;4.00;;;;;;;-147.86;100.00;-17609.17;105621;1260;60415;-45
2024/04/09 06:00:07;;;;;;;7.40;4.30;;;;;;;-147.86;100.00;-17609.17;105604;1260;73860;-47
2024/04/09 06:02:44;;;;;;;11.80;4.20;;;;;;;-147.86;100.00;-16521.95;105501;1262;66060;-48
2024/04/09 06:05:11;;;;;;;8.10;3.70;;;;;;;-147.86;100.00;-11928.85;105558;1262;73973;-48
2024/04/09 06:07:38;;;;;;;20.90;4.30;;;;;;;-147.86;99.97;-4113.04;105478;1262;60563;-49
2024/04/09 06:10:05;;;;;;;10.50;3.50;;;;;;;-147.86;98.94;4313.91;105464;1260;60537;-49
2024/04/09 06:12:32;;;;;;;5.40;3.00;;;;;;;-147.86;97.21;11466.34;105501;1263;73394;-45
2024/04/09 06:14:59;;;;;;;16.80;4.00;;;;;;;-147.86;93.94;19778.26;105463;1262;66977;-45
2024/04/09 06:17:26;;;;;;;15.20;3.40;;;;;;;-147.86;92.50;29026.32;105432;1260;73960;-46
2024/04/09 06:19:57;;;;;;;14.40;3.30;;;;;;;-147.86;93.22;35337.59;105491;1263;61651;-47
2024/04/09 06:22:25;;;;;;;18.50;3.70;;;;;;;-147.86;92.77;42098.66;105361;1261;61474;-53
2024/04/09 06:24:52;;;;;;;8.70;3.80;;;;;;;-147.86;94.98;43451.35;105164;1260;74070;-50
2024/04/09 06:27:19;;;;;;;8.50;3.90;;;;;;;-147.86;95.69;43716.47;105188;1262;66806;-47
2024/04/09 06:29:46;;;;;;;5.30;3.20;;;;;;;-147.86;95.27;44343.51;105379;1260;73783;-49
2024/04/09 06:32:12;;;;;;;6.30;3.40;;;;;;;-147.86;95.07;44700.75;105471;1262;61450;-53
2024/04/09 06:34:39;;;;;;;11.20;3.50;;;;;;;-147.86;94.79;45287.60;105579;1260;61656;-47
2024/04/09 06:37:07;;;;;;;5.80;3.50;;;;;;;-147.86;94.58;45626.11;105493;1261;75136;-51
2024/04/09 06:39:34;;;;;;;7.70;3.70;;;;;;;-147.86;92.03;46351.44;105451;1262;66806;-46
2024/04/09 06:42:03;;;;;;;5.30;3.10;;;;;;;-147.86;91.47;47064.34;105426;1260;74261;-47
2024/04/09 06:44:31;;;;;;;5.10;3.00;;;;;;;-147.86;91.30;47389.68;105589;1262;61441;-45
2024/04/09 06:46:59;;;;;;;5.30;3.20;;;;;;;-147.86;90.51;47702.11;105498;1260;61746;-48
2024/04/09 06:49:26;;;;;;;6.20;2.60;;;;;;;-147.86;90.23;47934.20;105479;1260;75092;-46
2024/04/09 06:51:53;;;;;;;7.20;2.90;;;;;;;-147.86;89.22;48132.57;105507;1262;65927;-49
2024/04/09 06:54:21;;;;;;;6.30;3.70;;;;;;;-147.86;89.31;48276.86;105450;1263;74080;-49
2024/04/09 06:56:48;;;;;;;15.60;3.90;;;;;;;-147.86;88.91;48423.89;105459;1262;60529;-50
2024/04/09 06:59:15;;;;;;;18.60;3.60;;;;;;;-147.86;87.88;48558.77;105534;1259;61642;-46
2024/04/09 07:01:42;;;;;;;8.30;3.30;;;;;;;-147.86;88.16;48643.07;105451;1260;74980;-49
2024/04/09 07:04:09;;;;;;;6.50;2.90;;;;;;;-147.86;85.90;48744.64;105489;1262;66792;-47
2024/04/09 07:06:37;;;;;;;8.70;3.50;;;;;;;-147.86;84.49;48900.32;105475;1260;73813;-44
2024/04/09 07:09:06;;;;;;;6.00;3.10;;;;;;;-147.86;84.84;49035.21;105446;1262;61633;-46
2024/04/09 07:11:33;;;;;;;10.20;3.10;;;;;;;-147.86;84.35;49123.84;105485;1260;61741;-47
2024/04/09 07:14:00;;;;;;;5.30;3.20;;;;;;;-147.86;83.80;49173.65;105471;1260;74975;-48
2024/04/09 07:16:27;;;;;;;6.70;3.40;;;;;;;-147.86;83.53;49185.02;105450;1262;66681;-53
2024/04/09 07:18:54;;;;;;;7.80;2.90;;;;;;;-147.86;83.84;49221.49;105434;1260;73785;-46
2024/04/09 07:21:21;;;;;;;10.90;3.20;;;;;;;-147.86;83.94;49239.93;105498;1262;61407;-47
2024/04/09 07:23:49;;;;;;;4.80;3.10;;;;;;;-147.86;85.35;49268.16;105491;1260;61492;-50
2024/04/09 07:26:16;;;;;;;7.60;2.90;;;;;;;-147.86;85.62;49269.73;105487;1260;74217;-48
2024/04/09 07:28:43;;;;;;;7.70;3.30;;;;;;;-147.86;85.68;49288.16;105465;1262;65885;-49
2024/04/09 07:31:10;;;;;;;10.60;3.40;;;;;;;-147.86;83.76;49286.20;105437;1262;72837;-52
2024/04/09 07:33:37;;;;;;;4.40;2.80;;;;;;;-147.86;83.76;49355.23;105468;1262;61676;-48
2024/04/09 07:36:04;;;;;;;5.00;3.20;;;;;;;-147.86;80.09;49371.70;105447;1260;60928;-47
2024/04/09 07:38:32;;;;;;;6.20;3.00;;;;;;;-147.86;80.17;49378.76;105468;1261;74007;-46
2024/04/09 07:40:59;;;;;;;9.20;3.20;;;;;;;-147.86;80.30;49435.63;105466;1262;66821;-51
2024/04/09 07:43:28;;;;;;;4.70;2.80;;;;;;;-147.86;78.90;49436.41;105456;1261;74142;-46
2024/04/09 07:46:01;;;;;;;5.00;3.30;;;;;;;-147.86;75.88;49416.80;105426;1262;61659;-49
2024/04/09 07:48:29;;;;;;;7.00;3.20;;;;;;;-147.86;74.50;49454.45;105499;1260;61568;-47
2024/04/09 07:50:56;;;;;;;7.00;3.30;;;;;;;-147.86;72.84;49475.24;105525;1260;74817;-48
2024/04/09 07:53:23;;;;;;;10.80;3.60;;;;;;;-147.86;68.80;49433.27;105472;1262;66204;-52
2024/04/09 07:55:52;;;;;;;9.70;2.90;;;;;;;-147.86;64.69;49343.85;105451;1260;73920;-46
2024/04/09 07:58:19;;;;;;;12.50;2.90;;;;;;;-147.86;64.21;49314.83;105478;1262;61765;-46
2024/04/09 08:00:46;;;;;;;5.80;3.00;;;;;;;-147.86;62.53;49268.95;105544;1260;61339;-47
2024/04/09 08:03:13;;;;;;;5.00;2.50;;;;;;;-147.86;60.36;49261.89;105490;1258;74021;-48
2024/04/09 08:05:41;;;;;;;4.70;3.10;;;;;;;-147.86;60.30;49239.14;105474;1262;65821;-50
2024/04/09 08:08:09;;;;;;;20.40;3.30;;;;;;;-147.86;60.26;49260.32;105150;1263;74490;-53
2024/04/09 08:10:37;;;;;;;7.20;2.90;;;;;;;-147.86;55.51;49180.31;105285;1262;60410;-47
2024/04/09 08:13:05;;;;;;;9.20;3.30;;;;;;;-147.86;55.49;49167.76;105584;1259;60540;-51
2024/04/09 08:15:32;;;;;;;11.10;2.90;;;;;;;-147.86;52.43;49165.02;105567;1259;75060;-46
2024/04/09 08:18:00;;;;;;;13.80;3.00;;;;;;;-147.86;48.47;49070.51;105550;1262;66761;-43
2024/04/09 08:20:27;;;;;;;16.10;3.20;;;;;;;-147.86;48.21;49062.27;105664;1262;72826;-46
2024/04/09 08:22:54;;;;;;;8.90;3.30;;;;;;;-147.86;46.56;49037.18;105570;1262;61682;-49
2024/04/09 08:25:21;;;;;;;12.90;3.90;;;;;;;-147.86;45.73;49043.45;105569;1259;61354;-49
2024/04/09 08:27:49;;;;;;;16.40;3.20;;;;;;;-147.86;43.65;49004.63;105534;1262;75533;-46
2024/04/09 08:30:23;;;;;;;20.70;4.00;;;;;;;-147.86;46.37;49077.96;105553;1263;66622;-49
2024/04/09 08:32:51;;;;;;;17.30;4.00;;;;;;;-147.86;45.08;49108.95;105609;1262;73745;-45
2024/04/09 08:35:19;;;;;;;14.90;3.80;;;;;;;-147.86;42.25;49071.69;105613;1261;61498;-47
2024/04/09 08:37:46;;;;;;;10.60;3.50;;;;;;;-147.86;41.24;49045.41;105559;1263;61502;-46
2024/04/09 08:40:17;;;;;;;14.50;3.40;;;;;;;-147.86;39.05;48969.73;105596;1258;75341;-47
2024/04/09 08:42:45;;;;;;;20.70;4.10;;;;;;;-147.86;39.16;48832.87;105599;1262;65849;-49
2024/04/09 08:45:15;;;;;;;20.50;3.80;;;;;;;-147.86;39.09;48841.10;105628;1261;74370;-45
2024/04/09 08:47:43;;;;;;;7.30;2.80;;;;;;;-147.86;38.26;48853.26;105607;1258;60540;-51
2024/04/09 08:50:12;;;;;;;8.00;2.80;;;;;;;-147.86;35.35;48730.13;105568;1258;61606;-49
2024/04/09 08:52:40;;;;;;;9.60;2.80;;;;;;;-147.86;34.91;48580.34;105590;1262;73760;-51
2024/04/09 08:55:08;;;;;;;9.70;3.30;;;;;;;-147.86;35.56;48573.67;105561;1262;64964;-51
2024/04/09 08:57:36;;;;;;;11.00;3.00;;;;;;;-147.86;34.79;48553.29;105573;1260;72749;-51
2024/04/09 09:00:06;;;;;;;9.30;3.00;;;;;;;-147.86;35.45;48556.03;105577;1260;60438;-46
2024/04/09 09:02:39;;;;;;;8.10;3.00;;;;;;;-147.86;35.30;48542.70;105590;1257;60456;-47
2024/04/09 09:05:17;;;;;;;6.80;2.40;;;;;;;-147.86;35.88;48572.11;105642;1262;74032;-45
2024/04/09 09:07:44;;;;;;;10.80;2.50;;;;;;;-147.86;34.11;48557.60;105579;1262;65981;-46
2024/04/09 09:10:11;;;;;;;6.50;2.50;;;;;;;-147.86;33.09;48502.31;105393;1263;73943;-46
2024/04/09 09:12:39;;;;;;;11.30;2.80;;;;;;;-147.86;33.32;48507.02;105561;1261;61889;-47
2024/04/09 09:15:08;;;;;;;6.00;2.20;;;;;;;-147.86;32.28;48489.77;105561;1262;60580;-50
2024/04/09 09:17:35;;;;;;;10.40;2.00;;;;;;;-147.86;32.12;48445.46;105552;1260;72704;-48
2024/04/09 09:20:09;;;;;;;4.90;1.90;;;;;;;-147.86;32.29;48449.77;105569;1262;66094;-49
2024/04/09 09:22:46;;;;;;;7.00;1.60;;;;;;;-147.86;31.04;48405.46;105543;1262;73810;-48
2024/04/09 09:25:18;;;;;;;5.70;1.60;;;;;;;-147.86;30.81;48370.96;105552;1271;61561;-52
2024/04/09 09:27:45;;;;;;;4.20;1.20;;;;;;;-147.86;30.09;48369.00;105587;1263;61327;-48
2024/04/09 09:30:13;;;;;;;4.70;1.50;;;;;;;-147.86;29.47;48350.57;105539;1258;75227;-48
2024/04/09 09:32:48;;;;;;;3.80;1.50;;;;;;;-147.86;29.17;48310.97;105545;1262;66004;-47
2024/04/09 09:35:17;;;;;;;1.40;1.20;;;;;;;-147.86;29.39;48286.66;105551;1261;73888;-53
2024/04/09 09:37:48;;;;;;;1.10;0.90;;;;;;;-147.86;28.49;48187.86;105582;1260;61283;-54
2024/04/09 09:40:15;;;;;;;1.60;1.00;;;;;;;-147.86;28.72;48140.41;105619;1257;61218;-49
2024/04/09 09:42:44;;;;;;;5.20;1.00;;;;;;;-147.86;28.74;48126.70;105577;1262;76037;-55
2024/04/09 09:45:12;;;;;;;5.60;1.40;;;;;;;-147.86;29.25;48167.47;105568;1263;63789;-48
2024/04/09 09:47:40;;;;;;;5.20;1.60;;;;;;;-147.86;28.71;48181.58;105301;1264;73244;-51
2024/04/09 09:50:08;;;;;;;4.70;1.80;;;;;;;-147.86;29.11;48181.98;105561;1262;61519;-48
2024/04/09 09:52:44;;;;;;;3.40;1.50;;;;;;;-147.86;29.07;48113.36;105512;1258;61642;-52
2024/04/09 09:55:12;;;;;;;9.60;1.70;;;;;;;-147.86;29.34;48152.57;105411;1260;76322;-51
2024/04/09 09:57:41;;;;;;;3.30;2.20;;;;;;;-147.86;29.04;48145.51;105355;1263;65615;-48
2024/04/09 10:00:10;;;;;;;5.00;2.00;;;;;;;-147.86;29.56;48134.14;105532;1262;74062;-51
2024/04/09 10:02:42;;;;;;;7.70;2.20;;;;;;;-147.86;29.70;48125.13;105295;1258;61345;-48
2024/04/09 10:05:17;;;;;;;13.70;1.80;;;;;;;-147.86;29.68;48091.02;105588;1262;61526;-53
2024/04/09 10:07:48;;;;;;;5.10;2.10;;;;;;;-147.86;29.93;48119.64;105288;1264;76165;-51
2024/04/09 10:10:29;;;;;;;5.20;2.10;;;;;;;-147.86;29.96;48180.80;105613;1262;64926;-52
2024/04/09 10:13:07;;;;;;;2.00;1.70;;;;;;;-147.86;28.95;48199.23;105606;1260;74400;-51
2024/04/09 10:15:34;;;;;;;3.90;1.80;;;;;;;-147.86;28.44;48165.12;105538;1263;61762;-54
2024/04/09 10:18:05;;;;;;;10.00;1.60;;;;;;;-147.86;28.48;48106.31;105599;1258;61749;-49
2024/04/09 10:20:36;;;;;;;10.80;2.00;;;;;;;-147.86;28.80;48060.44;105561;1262;75888;-52
2024/04/09 10:23:06;;;;;;;8.60;2.00;;;;;;;-147.86;28.96;48090.63;105562;1263;65847;-54
2024/04/09 10:25:39;;;;;;;4.60;1.70;;;;;;;-147.86;28.94;48135.71;105513;1262;73732;-50
2024/04/09 10:28:08;;;;;;;3.20;1.50;;;;;;;-147.86;28.93;48185.11;105559;1263;62108;-50
2024/04/09 10:30:37;;;;;;;8.40;1.30;;;;;;;-147.86;29.03;48217.26;105572;1261;61292;-52
2024/04/09 10:33:05;;;;;;;5.00;1.90;;;;;;;-147.86;28.91;48232.16;105596;1263;74853;-51
2024/04/09 10:35:32;;;;;;;1.60;1.50;;;;;;;-147.86;28.73;48232.95;105562;1263;66201;-50
2024/04/09 10:38:04;;;;;;;6.90;1.60;;;;;;;-147.86;28.10;48161.20;105570;1264;73853;-48
2024/04/09 10:40:35;;;;;;;4.20;1.80;;;;;;;-147.86;28.21;48087.88;105607;1258;61356;-52
2024/04/09 10:43:06;;;;;;;3.50;1.80;;;;;;;-147.86;28.20;48044.75;105576;1258;61339;-50
2024/04/09 10:45:33;;;;;;;2.20;1.60;;;;;;;-147.86;28.10;48013.00;105577;1262;75807;-50
2024/04/09 10:48:13;;;;;;;2.20;1.60;;;;;;;-147.86;28.57;48013.78;105553;1264;66691;-53
2024/04/09 10:50:43;;;;;;;7.30;2.20;;;;;;;-147.86;28.56;47996.14;105539;1262;73832;-51
2024/04/09 10:53:11;;;;;;;3.90;2.00;;;;;;;-147.86;28.33;47979.68;105560;1262;61615;-55
2024/04/09 10:55:38;;;;;;;7.50;2.40;;;;;;;-147.86;28.68;47949.49;105247;1258;61355;-52
2024/04/09 10:58:05;;;;;;;6.80;1.70;;;;;;;-147.86;29.15;47972.23;105219;1262;74887;-51
2024/04/09 11:00:32;;;;;;;4.20;1.90;;;;;;;-147.86;28.70;47958.11;105525;1261;66092;-55
2024/04/09 11:03:00;;;;;;;2.20;1.90;;;;;;;-147.86;28.31;47964.77;105351;1260;74221;-52
2024/04/09 11:05:27;;;;;;;8.10;2.20;;;;;;;-147.86;28.35;48003.59;105572;1262;61145;-50
2024/04/09 11:07:54;;;;;;;3.00;1.50;;;;;;;-147.86;27.93;48022.41;105275;1258;61556;-49